sensor_id;sensor_type;location;lat;lon;timestamp;pressure;altitude;pressure_sealevel;temperature;humidity
6216;BME280;3141;49.234;9.326;2023-04-26T00:00:28;99730.22;;;9.51;74.66
6216;BME280;3141;49.234;9.326;2023-04-26T00:01:11;99727.97;;;9.56;74.81
6216;BME280;3141;49.234;9.326;2023-04-26T00:01:55;99736.41;;;9.59;74.94
6216;BME280;3141;49.234;9.326;2023-04-26T00:02:38;99731.56;;;9.55;74.60
6216;BME280;3141;49.234;9.326;2023-04-26T00:03:21;99736.25;;;9.61;74.33
6216;BME280;3141;49.234;9.326;2023-04-26T00:04:04;99737.22;;;9.60;74.11
6216;BME280;3141;49.234;9.326;2023-04-26T00:04:50;99736.25;;;9.61;74.38
6216;BME280;3141;49.234;9.326;2023-04-26T00:05:32;99731.28;;;9.58;74.54
6216;BME280;3141;49.234;9.326;2023-04-26T00:06:16;99735.19;;;9.54;74.66
6216;BME280;3141;49.234;9.326;2023-04-26T00:06:59;99733.28;;;9.46;74.89
6216;BME280;3141;49.234;9.326;2023-04-26T00:07:42;99734.81;;;9.49;74.52
6216;BME280;3141;49.234;9.326;2023-04-26T00:08:24;99736.44;;;9.50;75.06
6216;BME280;3141;49.234;9.326;2023-04-26T00:09:07;99736.31;;;9.51;74.67
6216;BME280;3141;49.234;9.326;2023-04-26T00:09:50;99734.66;;;9.50;74.67
6216;BME280;3141;49.234;9.326;2023-04-26T00:10:35;99735.50;;;9.51;74.48
6216;BME280;3141;49.234;9.326;2023-04-26T00:11:18;99732.41;;;9.55;74.33
6216;BME280;3141;49.234;9.326;2023-04-26T00:12:00;99734.34;;;9.53;74.15
6216;BME280;3141;49.234;9.326;2023-04-26T00:12:42;99731.88;;;9.52;74.31
6216;BME280;3141;49.234;9.326;2023-04-26T00:13:25;99735.50;;;9.51;74.55
6216;BME280;3141;49.234;9.326;2023-04-26T00:14:07;99735.63;;;9.49;74.53
6216;BME280;3141;49.234;9.326;2023-04-26T00:14:50;99735.34;;;9.52;74.27
6216;BME280;3141;49.234;9.326;2023-04-26T00:15:32;99736.59;;;9.48;74.29
6216;BME280;3141;49.234;9.326;2023-04-26T00:16:14;99733.81;;;9.50;74.29
6216;BME280;3141;49.234;9.326;2023-04-26T00:16:57;99737.16;;;9.52;74.17
6216;BME280;3141;49.234;9.326;2023-04-26T00:17:39;99742.03;;;9.47;74.20
6216;BME280;3141;49.234;9.326;2023-04-26T00:18:22;99739.09;;;9.50;73.72
6216;BME280;3141;49.234;9.326;2023-04-26T00:19:04;99741.88;;;9.48;74.06
6216;BME280;3141;49.234;9.326;2023-04-26T00:19:47;99734.69;;;9.41;74.30
6216;BME280;3141;49.234;9.326;2023-04-26T00:20:29;99738.00;;;9.43;74.09
6216;BME280;3141;49.234;9.326;2023-04-26T00:21:11;99735.38;;;9.43;74.12
6216;BME280;3141;49.234;9.326;2023-04-26T00:21:54;99738.16;;;9.41;73.87
6216;BME280;3141;49.234;9.326;2023-04-26T00:22:36;99735.00;;;9.38;74.19
6216;BME280;3141;49.234;9.326;2023-04-26T00:23:18;99734.03;;;9.39;74.15
6216;BME280;3141;49.234;9.326;2023-04-26T00:24:01;99735.44;;;9.33;74.60
6216;BME280;3141;49.234;9.326;2023-04-26T00:24:43;99739.19;;;9.30;74.42
6216;BME280;3141;49.234;9.326;2023-04-26T00:25:26;99737.53;;;9.29;74.22
6216;BME280;3141;49.234;9.326;2023-04-26T00:26:08;99735.31;;;9.25;74.68
6216;BME280;3141;49.234;9.326;2023-04-26T00:26:54;99738.09;;;9.23;74.71
6216;BME280;3141;49.234;9.326;2023-04-26T00:27:36;99737.03;;;9.16;75.03
6216;BME280;3141;49.234;9.326;2023-04-26T00:28:18;99733.72;;;9.14;74.90
6216;BME280;3141;49.234;9.326;2023-04-26T00:29:03;99738.06;;;9.06;75.24
6216;BME280;3141;49.234;9.326;2023-04-26T00:29:45;99733.06;;;9.03;75.34
6216;BME280;3141;49.234;9.326;2023-04-26T00:30:28;99739.19;;;9.03;75.35
6216;BME280;3141;49.234;9.326;2023-04-26T00:31:14;99738.34;;;9.03;75.15
6216;BME280;3141;49.234;9.326;2023-04-26T00:31:57;99736.25;;;9.06;75.05
6216;BME280;3141;49.234;9.326;2023-04-26T00:32:39;99731.94;;;9.05;75.01
6216;BME280;3141;49.234;9.326;2023-04-26T00:33:24;99739.31;;;9.02;75.59
6216;BME280;3141;49.234;9.326;2023-04-26T00:34:07;99736.44;;;8.95;75.42
6216;BME280;3141;49.234;9.326;2023-04-26T00:34:49;99738.94;;;8.97;75.29
6216;BME280;3141;49.234;9.326;2023-04-26T00:35:31;99740.44;;;8.99;75.05
6216;BME280;3141;49.234;9.326;2023-04-26T00:36:14;99731.81;;;8.97;75.22
6216;BME280;3141;49.234;9.326;2023-04-26T00:37:00;99741.03;;;8.93;75.02
6216;BME280;3141;49.234;9.326;2023-04-26T00:37:42;99736.84;;;9.00;75.04
6216;BME280;3141;49.234;9.326;2023-04-26T00:38:25;99740.72;;;8.96;75.20
6216;BME280;3141;49.234;9.326;2023-04-26T00:39:07;99737.25;;;8.96;74.85
6216;BME280;3141;49.234;9.326;2023-04-26T00:39:50;99739.06;;;8.95;74.80
6216;BME280;3141;49.234;9.326;2023-04-26T00:40:32;99739.34;;;8.92;75.23
6216;BME280;3141;49.234;9.326;2023-04-26T00:41:16;99731.56;;;8.91;75.14
6216;BME280;3141;49.234;9.326;2023-04-26T00:41:58;99739.94;;;8.86;75.37
6216;BME280;3141;49.234;9.326;2023-04-26T00:42:41;99735.91;;;8.82;75.53
6216;BME280;3141;49.234;9.326;2023-04-26T00:43:23;99738.13;;;8.87;75.19
6216;BME280;3141;49.234;9.326;2023-04-26T00:44:05;99739.63;;;8.89;74.94
6216;BME280;3141;49.234;9.326;2023-04-26T00:44:48;99745.59;;;8.91;75.35
6216;BME280;3141;49.234;9.326;2023-04-26T00:45:31;99743.66;;;8.93;75.49
6216;BME280;3141;49.234;9.326;2023-04-26T00:46:14;99746.59;;;8.90;75.62
6216;BME280;3141;49.234;9.326;2023-04-26T00:46:56;99745.69;;;8.99;75.65
6216;BME280;3141;49.234;9.326;2023-04-26T00:47:39;99740.44;;;8.99;75.85
6216;BME280;3141;49.234;9.326;2023-04-26T00:48:22;99750.19;;;8.89;75.73
6216;BME280;3141;49.234;9.326;2023-04-26T00:49:04;99750.72;;;8.93;76.07
6216;BME280;3141;49.234;9.326;2023-04-26T00:49:46;99748.53;;;8.88;76.02
6216;BME280;3141;49.234;9.326;2023-04-26T00:50:30;99748.69;;;8.87;76.11
6216;BME280;3141;49.234;9.326;2023-04-26T00:51:13;99750.03;;;8.91;75.57
6216;BME280;3141;49.234;9.326;2023-04-26T00:51:56;99749.88;;;8.92;75.60
6216;BME280;3141;49.234;9.326;2023-04-26T00:52:38;99748.38;;;8.90;75.75
6216;BME280;3141;49.234;9.326;2023-04-26T00:53:21;99746.84;;;8.87;75.50
6216;BME280;3141;49.234;9.326;2023-04-26T00:54:04;99753.25;;;8.85;75.19
6216;BME280;3141;49.234;9.326;2023-04-26T00:54:47;99750.78;;;8.83;75.07
6216;BME280;3141;49.234;9.326;2023-04-26T00:55:30;99752.72;;;8.81;75.26
6216;BME280;3141;49.234;9.326;2023-04-26T00:56:13;99751.44;;;8.85;75.57
6216;BME280;3141;49.234;9.326;2023-04-26T00:56:57;99758.53;;;8.85;75.32
6216;BME280;3141;49.234;9.326;2023-04-26T00:57:39;99747.44;;;8.81;75.33
6216;BME280;3141;49.234;9.326;2023-04-26T00:58:22;99748.28;;;8.72;75.62
6216;BME280;3141;49.234;9.326;2023-04-26T00:59:05;99749.69;;;8.67;75.80
6216;BME280;3141;49.234;9.326;2023-04-26T00:59:47;99750.41;;;8.59;76.19
6216;BME280;3141;49.234;9.326;2023-04-26T01:00:30;99745.53;;;8.64;75.91
6216;BME280;3141;49.234;9.326;2023-04-26T01:01:12;99749.81;;;8.65;75.99
6216;BME280;3141;49.234;9.326;2023-04-26T01:01:55;99750.25;;;8.61;75.89
6216;BME280;3141;49.234;9.326;2023-04-26T01:02:37;99755.53;;;8.61;76.06
6216;BME280;3141;49.234;9.326;2023-04-26T01:03:19;99753.16;;;8.67;75.97
6216;BME280;3141;49.234;9.326;2023-04-26T01:04:02;99746.91;;;8.68;75.83
6216;BME280;3141;49.234;9.326;2023-04-26T01:04:44;99753.03;;;8.59;75.75
6216;BME280;3141;49.234;9.326;2023-04-26T01:05:27;99739.44;;;8.54;76.14
6216;BME280;3141;49.234;9.326;2023-04-26T01:06:09;99749.56;;;8.49;76.16
6216;BME280;3141;49.234;9.326;2023-04-26T01:06:52;99741.00;;;8.47;76.55
6216;BME280;3141;49.234;9.326;2023-04-26T01:07:36;99751.66;;;8.55;76.25
6216;BME280;3141;49.234;9.326;2023-04-26T01:08:19;99756.06;;;8.64;75.79
6216;BME280;3141;49.234;9.326;2023-04-26T01:09:03;99748.16;;;8.55;76.11
6216;BME280;3141;49.234;9.326;2023-04-26T01:09:48;99748.59;;;8.50;76.34
6216;BME280;3141;49.234;9.326;2023-04-26T01:10:31;99746.94;;;8.49;76.25
6216;BME280;3141;49.234;9.326;2023-04-26T01:11:15;99750.41;;;8.50;76.19
6216;BME280;3141;49.234;9.326;2023-04-26T01:11:59;99749.84;;;8.46;76.43
6216;BME280;3141;49.234;9.326;2023-04-26T01:12:42;99754.72;;;8.41;76.47
6216;BME280;3141;49.234;9.326;2023-04-26T01:13:24;99763.13;;;8.54;76.08
6216;BME280;3141;49.234;9.326;2023-04-26T01:14:07;99753.16;;;8.58;75.80
6216;BME280;3141;49.234;9.326;2023-04-26T01:14:50;99758.84;;;8.53;75.80
6216;BME280;3141;49.234;9.326;2023-04-26T01:15:33;99750.13;;;8.43;76.24
6216;BME280;3141;49.234;9.326;2023-04-26T01:16:18;99752.22;;;8.30;76.32
6216;BME280;3141;49.234;9.326;2023-04-26T01:17:02;99753.91;;;8.31;76.48
6216;BME280;3141;49.234;9.326;2023-04-26T01:17:47;99762.09;;;8.28;76.60
6216;BME280;3141;49.234;9.326;2023-04-26T01:18:30;99761.09;;;8.29;76.69
6216;BME280;3141;49.234;9.326;2023-04-26T01:19:13;99758.75;;;8.26;76.69
6216;BME280;3141;49.234;9.326;2023-04-26T01:19:56;99758.59;;;8.28;76.54
6216;BME280;3141;49.234;9.326;2023-04-26T01:20:38;99753.19;;;8.19;76.51
6216;BME280;3141;49.234;9.326;2023-04-26T01:21:22;99754.16;;;8.09;76.87
6216;BME280;3141;49.234;9.326;2023-04-26T01:22:05;99753.44;;;8.07;77.08
6216;BME280;3141;49.234;9.326;2023-04-26T01:22:47;99754.00;;;8.10;77.10
6216;BME280;3141;49.234;9.326;2023-04-26T01:23:30;99757.75;;;8.17;76.83
6216;BME280;3141;49.234;9.326;2023-04-26T01:24:13;99757.75;;;8.17;76.52
6216;BME280;3141;49.234;9.326;2023-04-26T01:24:56;99753.28;;;8.18;76.41
6216;BME280;3141;49.234;9.326;2023-04-26T01:25:39;99758.00;;;8.14;76.28
6216;BME280;3141;49.234;9.326;2023-04-26T01:26:22;99756.91;;;8.17;76.05
6216;BME280;3141;49.234;9.326;2023-04-26T01:27:04;99751.50;;;7.99;76.49
6216;BME280;3141;49.234;9.326;2023-04-26T01:27:47;99753.44;;;7.97;76.84
6216;BME280;3141;49.234;9.326;2023-04-26T01:28:29;99752.47;;;7.98;76.79
6216;BME280;3141;49.234;9.326;2023-04-26T01:29:13;99751.50;;;7.99;76.47
6216;BME280;3141;49.234;9.326;2023-04-26T01:29:56;99754.69;;;8.03;76.46
6216;BME280;3141;49.234;9.326;2023-04-26T01:30:38;99757.19;;;7.95;76.38
6216;BME280;3141;49.234;9.326;2023-04-26T01:31:20;99745.81;;;7.94;76.81
6216;BME280;3141;49.234;9.326;2023-04-26T01:32:03;99745.66;;;7.96;76.41
6216;BME280;3141;49.234;9.326;2023-04-26T01:32:45;99748.31;;;7.96;76.54
6216;BME280;3141;49.234;9.326;2023-04-26T01:33:27;99751.06;;;7.94;76.38
6216;BME280;3141;49.234;9.326;2023-04-26T01:34:10;99750.25;;;7.94;76.23
6216;BME280;3141;49.234;9.326;2023-04-26T01:34:52;99745.81;;;7.85;76.64
6216;BME280;3141;49.234;9.326;2023-04-26T01:35:35;99743.84;;;7.77;76.99
6216;BME280;3141;49.234;9.326;2023-04-26T01:36:17;99751.63;;;7.79;76.94
6216;BME280;3141;49.234;9.326;2023-04-26T01:37:00;99747.34;;;7.78;77.26
6216;BME280;3141;49.234;9.326;2023-04-26T01:37:43;99746.22;;;7.80;77.28
6216;BME280;3141;49.234;9.326;2023-04-26T01:38:25;99751.88;;;7.76;77.47
6216;BME280;3141;49.234;9.326;2023-04-26T01:39:07;99752.03;;;7.74;77.85
6216;BME280;3141;49.234;9.326;2023-04-26T01:39:50;99753.13;;;7.72;77.67
6216;BME280;3141;49.234;9.326;2023-04-26T01:40:33;99746.50;;;7.77;77.61
6216;BME280;3141;49.234;9.326;2023-04-26T01:41:15;99749.25;;;7.85;77.31
6216;BME280;3141;49.234;9.326;2023-04-26T01:41:57;99758.00;;;7.86;76.78
6216;BME280;3141;49.234;9.326;2023-04-26T01:42:40;99754.94;;;7.81;76.70
6216;BME280;3141;49.234;9.326;2023-04-26T01:43:22;99746.06;;;7.72;77.08
6216;BME280;3141;49.234;9.326;2023-04-26T01:44:04;99748.13;;;7.69;77.06
6216;BME280;3141;49.234;9.326;2023-04-26T01:44:47;99756.03;;;7.69;77.36
6216;BME280;3141;49.234;9.326;2023-04-26T01:45:29;99750.50;;;7.62;77.67
6216;BME280;3141;49.234;9.326;2023-04-26T01:46:12;99749.78;;;7.60;77.55
6216;BME280;3141;49.234;9.326;2023-04-26T01:46:54;99749.06;;;7.58;77.56
6216;BME280;3141;49.234;9.326;2023-04-26T01:47:37;99755.47;;;7.65;77.28
6216;BME280;3141;49.234;9.326;2023-04-26T01:48:19;99750.78;;;7.69;76.72
6216;BME280;3141;49.234;9.326;2023-04-26T01:49:01;99749.78;;;7.70;76.44
6216;BME280;3141;49.234;9.326;2023-04-26T01:49:43;99742.88;;;7.69;76.37
6216;BME280;3141;49.234;9.326;2023-04-26T01:50:26;99750.06;;;7.67;76.35
6216;BME280;3141;49.234;9.326;2023-04-26T01:51:08;99745.22;;;7.62;76.37
6216;BME280;3141;49.234;9.326;2023-04-26T01:51:50;99752.38;;;7.51;76.71
6216;BME280;3141;49.234;9.326;2023-04-26T01:52:33;99752.28;;;7.52;77.19
6216;BME280;3141;49.234;9.326;2023-04-26T01:53:15;99752.94;;;7.45;77.13
6216;BME280;3141;49.234;9.326;2023-04-26T01:53:57;99754.84;;;7.43;77.19
6216;BME280;3141;49.234;9.326;2023-04-26T01:54:40;99753.63;;;7.47;77.22
6216;BME280;3141;49.234;9.326;2023-04-26T01:55:22;99756.81;;;7.50;77.03
6216;BME280;3141;49.234;9.326;2023-04-26T01:56:05;99750.72;;;7.50;76.91
6216;BME280;3141;49.234;9.326;2023-04-26T01:56:47;99751.56;;;7.50;76.73
6216;BME280;3141;49.234;9.326;2023-04-26T01:57:29;99753.34;;;7.50;76.79
6216;BME280;3141;49.234;9.326;2023-04-26T01:58:12;99745.03;;;7.45;76.82
6216;BME280;3141;49.234;9.326;2023-04-26T01:58:54;99753.78;;;7.45;77.27
6216;BME280;3141;49.234;9.326;2023-04-26T01:59:37;99753.91;;;7.44;77.21
6216;BME280;3141;49.234;9.326;2023-04-26T02:00:19;99744.06;;;7.46;77.48
6216;BME280;3141;49.234;9.326;2023-04-26T02:01:07;99749.06;;;7.49;76.99
6216;BME280;3141;49.234;9.326;2023-04-26T02:01:49;99756.69;;;7.52;76.93
6216;BME280;3141;49.234;9.326;2023-04-26T02:02:31;99753.78;;;7.55;76.49
6216;BME280;3141;49.234;9.326;2023-04-26T02:03:14;99748.53;;;7.55;76.24
6216;BME280;3141;49.234;9.326;2023-04-26T02:03:56;99750.06;;;7.57;76.12
6216;BME280;3141;49.234;9.326;2023-04-26T02:04:39;99748.94;;;7.60;75.87
6216;BME280;3141;49.234;9.326;2023-04-26T02:05:21;99751.00;;;7.56;75.62
6216;BME280;3141;49.234;9.326;2023-04-26T02:06:04;99752.38;;;7.51;75.72
6216;BME280;3141;49.234;9.326;2023-04-26T02:06:47;99754.19;;;7.50;75.89
6216;BME280;3141;49.234;9.326;2023-04-26T02:07:29;99754.75;;;7.54;75.58
6216;BME280;3141;49.234;9.326;2023-04-26T02:08:11;99745.75;;;7.56;75.41
6216;BME280;3141;49.234;9.326;2023-04-26T02:08:55;99748.00;;;7.61;75.51
6216;BME280;3141;49.234;9.326;2023-04-26T02:09:38;99740.75;;;7.53;75.54
6216;BME280;3141;49.234;9.326;2023-04-26T02:10:20;99750.72;;;7.50;75.82
6216;BME280;3141;49.234;9.326;2023-04-26T02:11:02;99741.84;;;7.51;75.70
6216;BME280;3141;49.234;9.326;2023-04-26T02:11:45;99746.44;;;7.49;76.21
6216;BME280;3141;49.234;9.326;2023-04-26T02:12:27;99744.06;;;7.46;75.87
6216;BME280;3141;49.234;9.326;2023-04-26T02:13:09;99749.44;;;7.44;75.69
6216;BME280;3141;49.234;9.326;2023-04-26T02:13:52;99741.44;;;7.46;75.71
6216;BME280;3141;49.234;9.326;2023-04-26T02:14:34;99746.81;;;7.44;75.63
6216;BME280;3141;49.234;9.326;2023-04-26T02:15:17;99753.63;;;7.47;75.88
6216;BME280;3141;49.234;9.326;2023-04-26T02:15:59;99747.53;;;7.46;75.97
6216;BME280;3141;49.234;9.326;2023-04-26T02:16:41;99751.69;;;7.49;75.85
6216;BME280;3141;49.234;9.326;2023-04-26T02:17:25;99747.94;;;7.51;75.62
6216;BME280;3141;49.234;9.326;2023-04-26T02:18:07;99751.00;;;7.47;75.55
6216;BME280;3141;49.234;9.326;2023-04-26T02:18:50;99749.88;;;7.40;75.55
6216;BME280;3141;49.234;9.326;2023-04-26T02:19:34;99756.22;;;7.37;75.74
6216;BME280;3141;49.234;9.326;2023-04-26T02:20:16;99752.22;;;7.33;75.89
6216;BME280;3141;49.234;9.326;2023-04-26T02:20:58;99743.63;;;7.41;75.93
6216;BME280;3141;49.234;9.326;2023-04-26T02:21:51;99748.75;;;7.42;75.89
6216;BME280;3141;49.234;9.326;2023-04-26T02:22:33;99748.75;;;7.42;75.68
6216;BME280;3141;49.234;9.326;2023-04-26T02:23:16;99746.25;;;7.41;76.00
6216;BME280;3141;49.234;9.326;2023-04-26T02:23:58;99753.44;;;7.39;75.86
6216;BME280;3141;49.234;9.326;2023-04-26T02:24:40;99746.66;;;7.36;75.95
6216;BME280;3141;49.234;9.326;2023-04-26T02:25:23;99745.97;;;7.34;75.71
6216;BME280;3141;49.234;9.326;2023-04-26T02:26:05;99744.97;;;7.26;76.02
6216;BME280;3141;49.234;9.326;2023-04-26T02:26:48;99748.13;;;7.20;76.41
6216;BME280;3141;49.234;9.326;2023-04-26T02:27:30;99745.34;;;7.12;76.77
6216;BME280;3141;49.234;9.326;2023-04-26T02:28:14;99744.06;;;7.06;76.68
6216;BME280;3141;49.234;9.326;2023-04-26T02:28:57;99745.59;;;7.09;76.54
6216;BME280;3141;49.234;9.326;2023-04-26T02:29:39;99750.59;;;7.12;76.75
6216;BME280;3141;49.234;9.326;2023-04-26T02:30:22;99755.84;;;7.12;76.35
6216;BME280;3141;49.234;9.326;2023-04-26T02:31:04;99749.75;;;7.11;76.30
6216;BME280;3141;49.234;9.326;2023-04-26T02:31:47;99746.44;;;7.09;76.63
6216;BME280;3141;49.234;9.326;2023-04-26T02:32:29;99751.13;;;7.06;76.54
6216;BME280;3141;49.234;9.326;2023-04-26T02:33:12;99755.41;;;7.07;76.54
6216;BME280;3141;49.234;9.326;2023-04-26T02:33:54;99743.47;;;7.02;76.82
6216;BME280;3141;49.234;9.326;2023-04-26T02:34:37;99754.84;;;7.03;76.84
6216;BME280;3141;49.234;9.326;2023-04-26T02:35:20;99758.75;;;7.09;76.61
6216;BME280;3141;49.234;9.326;2023-04-26T02:36:03;99757.91;;;7.08;76.54
6216;BME280;3141;49.234;9.326;2023-04-26T02:36:47;99759.59;;;7.09;76.32
6216;BME280;3141;49.234;9.326;2023-04-26T02:37:29;99758.47;;;7.12;76.35
6216;BME280;3141;49.234;9.326;2023-04-26T02:38:13;99757.78;;;7.10;76.30
6216;BME280;3141;49.234;9.326;2023-04-26T02:38:55;99754.31;;;7.09;75.95
6216;BME280;3141;49.234;9.326;2023-04-26T02:39:37;99759.19;;;7.14;75.78
6216;BME280;3141;49.234;9.326;2023-04-26T02:40:20;99758.19;;;7.15;75.65
6216;BME280;3141;49.234;9.326;2023-04-26T02:41:03;99756.84;;;7.20;75.70
6216;BME280;3141;49.234;9.326;2023-04-26T02:41:45;99760.59;;;7.18;75.56
6216;BME280;3141;49.234;9.326;2023-04-26T02:42:28;99758.59;;;7.10;76.04
6216;BME280;3141;49.234;9.326;2023-04-26T02:43:10;99758.59;;;7.10;76.52
6216;BME280;3141;49.234;9.326;2023-04-26T02:43:52;99768.28;;;7.10;76.50
6216;BME280;3141;49.234;9.326;2023-04-26T02:44:35;99758.88;;;7.07;76.88
6216;BME280;3141;49.234;9.326;2023-04-26T02:45:18;99763.28;;;7.07;76.90
6216;BME280;3141;49.234;9.326;2023-04-26T02:46:00;99759.75;;;7.17;76.93
6216;BME280;3141;49.234;9.326;2023-04-26T02:46:43;99763.22;;;7.18;76.49
6216;BME280;3141;49.234;9.326;2023-04-26T02:47:25;99768.34;;;7.19;76.64
6216;BME280;3141;49.234;9.326;2023-04-26T02:48:07;99760.03;;;7.24;76.32
6216;BME280;3141;49.234;9.326;2023-04-26T02:48:50;99761.72;;;7.25;76.35
6216;BME280;3141;49.234;9.326;2023-04-26T02:49:32;99765.03;;;7.27;76.40
6216;BME280;3141;49.234;9.326;2023-04-26T02:50:15;99763.09;;;7.29;76.24
6216;BME280;3141;49.234;9.326;2023-04-26T02:50:57;99763.53;;;7.34;75.85
6216;BME280;3141;49.234;9.326;2023-04-26T02:51:40;99765.34;;;7.33;75.83
6216;BME280;3141;49.234;9.326;2023-04-26T02:52:22;99759.97;;;7.35;75.88
6216;BME280;3141;49.234;9.326;2023-04-26T02:53:04;99762.59;;;7.35;75.39
6216;BME280;3141;49.234;9.326;2023-04-26T02:53:47;99768.72;;;7.45;75.32
6216;BME280;3141;49.234;9.326;2023-04-26T02:54:29;99771.06;;;7.48;75.02
6216;BME280;3141;49.234;9.326;2023-04-26T02:55:11;99769.28;;;7.48;74.58
6216;BME280;3141;49.234;9.326;2023-04-26T02:55:54;99774.25;;;7.51;74.88
6216;BME280;3141;49.234;9.326;2023-04-26T02:56:36;99769.13;;;7.50;74.58
6216;BME280;3141;49.234;9.326;2023-04-26T02:57:18;99764.44;;;7.44;74.65
6216;BME280;3141;49.234;9.326;2023-04-26T02:58:01;99767.72;;;7.36;75.00
6216;BME280;3141;49.234;9.326;2023-04-26T02:58:43;99763.81;;;7.31;75.46
6216;BME280;3141;49.234;9.326;2023-04-26T02:59:25;99760.47;;;7.29;75.72
6216;BME280;3141;49.234;9.326;2023-04-26T03:00:08;99762.16;;;7.30;75.98
6216;BME280;3141;49.234;9.326;2023-04-26T03:00:50;99757.28;;;7.25;75.58
6216;BME280;3141;49.234;9.326;2023-04-26T03:01:35;99760.75;;;7.26;75.79
6216;BME280;3141;49.234;9.326;2023-04-26T03:02:17;99765.44;;;7.22;75.93
6216;BME280;3141;49.234;9.326;2023-04-26T03:03:00;99759.47;;;7.20;76.37
6216;BME280;3141;49.234;9.326;2023-04-26T03:03:42;99756.97;;;7.19;75.90
6216;BME280;3141;49.234;9.326;2023-04-26T03:04:24;99766.66;;;7.18;76.12
6216;BME280;3141;49.234;9.326;2023-04-26T03:05:07;99761.94;;;7.12;76.51
6216;BME280;3141;49.234;9.326;2023-04-26T03:05:50;99758.03;;;7.07;76.49
6216;BME280;3141;49.234;9.326;2023-04-26T03:06:32;99756.97;;;7.09;76.49
6216;BME280;3141;49.234;9.326;2023-04-26T03:07:15;99761.09;;;7.12;76.60
6216;BME280;3141;49.234;9.326;2023-04-26T03:07:57;99759.69;;;7.07;76.22
6216;BME280;3141;49.234;9.326;2023-04-26T03:08:40;99756.38;;;7.06;76.39
6216;BME280;3141;49.234;9.326;2023-04-26T03:09:22;99753.63;;;7.07;76.24
6216;BME280;3141;49.234;9.326;2023-04-26T03:10:05;99760.66;;;7.07;76.05
6216;BME280;3141;49.234;9.326;2023-04-26T03:10:48;99758.19;;;7.05;76.22
6216;BME280;3141;49.234;9.326;2023-04-26T03:11:30;99766.19;;;7.03;76.28
6216;BME280;3141;49.234;9.326;2023-04-26T03:12:13;99764.66;;;7.01;76.56
6216;BME280;3141;49.234;9.326;2023-04-26T03:12:55;99756.31;;;6.96;76.54
6216;BME280;3141;49.234;9.326;2023-04-26T03:13:37;99754.09;;;6.91;76.50
6216;BME280;3141;49.234;9.326;2023-04-26T03:14:19;99755.75;;;6.92;76.80
6216;BME280;3141;49.234;9.326;2023-04-26T03:15:02;99758.38;;;6.92;76.85
6216;BME280;3141;49.234;9.326;2023-04-26T03:15:45;99756.53;;;6.83;77.18
6216;BME280;3141;49.234;9.326;2023-04-26T03:16:27;99756.53;;;6.83;76.94
6216;BME280;3141;49.234;9.326;2023-04-26T03:17:10;99755.84;;;6.81;76.89
6216;BME280;3141;49.234;9.326;2023-04-26T03:17:52;99758.78;;;6.88;76.79
6216;BME280;3141;49.234;9.326;2023-04-26T03:18:34;99757.06;;;6.77;77.17
6216;BME280;3141;49.234;9.326;2023-04-26T03:19:17;99763.97;;;6.78;77.12
6216;BME280;3141;49.234;9.326;2023-04-26T03:19:59;99758.41;;;6.72;77.47
6216;BME280;3141;49.234;9.326;2023-04-26T03:20:41;99760.09;;;6.73;77.65
6216;BME280;3141;49.234;9.326;2023-04-26T03:21:24;99756.75;;;6.71;77.61
6216;BME280;3141;49.234;9.326;2023-04-26T03:22:06;99757.84;;;6.68;78.05
6216;BME280;3141;49.234;9.326;2023-04-26T03:22:49;99757.25;;;6.65;77.87
6216;BME280;3141;49.234;9.326;2023-04-26T03:23:31;99753.13;;;6.62;77.59
6216;BME280;3141;49.234;9.326;2023-04-26T03:24:13;99764.06;;;6.67;78.18
6216;BME280;3141;49.234;9.326;2023-04-26T03:24:55;99761.44;;;6.67;77.91
6216;BME280;3141;49.234;9.326;2023-04-26T03:25:38;99760.47;;;6.68;77.72
6216;BME280;3141;49.234;9.326;2023-04-26T03:26:20;99768.06;;;6.71;77.21
6216;BME280;3141;49.234;9.326;2023-04-26T03:27:03;99766.56;;;6.69;77.29
6216;BME280;3141;49.234;9.326;2023-04-26T03:27:46;99760.59;;;6.67;77.39
6216;BME280;3141;49.234;9.326;2023-04-26T03:28:28;99760.00;;;6.63;77.61
6216;BME280;3141;49.234;9.326;2023-04-26T03:29:10;99762.19;;;6.58;77.51
6216;BME280;3141;49.234;9.326;2023-04-26T03:29:53;99760.16;;;6.62;77.60
6216;BME280;3141;49.234;9.326;2023-04-26T03:30:35;99763.63;;;6.62;77.17
6216;BME280;3141;49.234;9.326;2023-04-26T03:31:18;99766.38;;;6.61;77.63
6216;BME280;3141;49.234;9.326;2023-04-26T03:32:02;99762.66;;;6.63;77.12
6216;BME280;3141;49.234;9.326;2023-04-26T03:32:44;99764.06;;;6.67;76.96
6216;BME280;3141;49.234;9.326;2023-04-26T03:33:27;99763.78;;;6.70;76.87
6216;BME280;3141;49.234;9.326;2023-04-26T03:34:09;99768.47;;;6.67;76.76
6216;BME280;3141;49.234;9.326;2023-04-26T03:34:51;99761.66;;;6.64;76.64
6216;BME280;3141;49.234;9.326;2023-04-26T03:35:34;99766.38;;;6.61;76.10
6216;BME280;3141;49.234;9.326;2023-04-26T03:36:16;99765.53;;;6.60;76.67
6216;BME280;3141;49.234;9.326;2023-04-26T03:36:58;99769.81;;;6.61;76.76
6216;BME280;3141;49.234;9.326;2023-04-26T03:37:41;99769.09;;;6.59;76.49
6216;BME280;3141;49.234;9.326;2023-04-26T03:38:24;99771.63;;;6.61;76.39
6216;BME280;3141;49.234;9.326;2023-04-26T03:39:06;99770.06;;;6.58;77.03
6216;BME280;3141;49.234;9.326;2023-04-26T03:39:48;99769.81;;;6.61;76.82
6216;BME280;3141;49.234;9.326;2023-04-26T03:40:31;99769.94;;;6.60;76.47
6216;BME280;3141;49.234;9.326;2023-04-26T03:41:14;99770.78;;;6.60;76.72
6216;BME280;3141;49.234;9.326;2023-04-26T03:41:56;99773.91;;;6.54;76.64
6216;BME280;3141;49.234;9.326;2023-04-26T03:42:38;99776.22;;;6.48;77.30
6216;BME280;3141;49.234;9.326;2023-04-26T03:43:21;99770.66;;;6.41;77.41
6216;BME280;3141;49.234;9.326;2023-04-26T03:44:03;99777.06;;;6.48;77.47
6216;BME280;3141;49.234;9.326;2023-04-26T03:44:46;99771.88;;;6.58;77.08
6216;BME280;3141;49.234;9.326;2023-04-26T03:45:28;99773.78;;;6.56;76.63
6216;BME280;3141;49.234;9.326;2023-04-26T03:46:10;99776.94;;;6.50;76.56
6216;BME280;3141;49.234;9.326;2023-04-26T03:46:53;99774.22;;;6.40;77.04
6216;BME280;3141;49.234;9.326;2023-04-26T03:47:35;99771.72;;;6.39;77.21
6216;BME280;3141;49.234;9.326;2023-04-26T03:48:18;99772.44;;;6.41;77.22
6216;BME280;3141;49.234;9.326;2023-04-26T03:49:00;99776.22;;;6.48;77.36
6216;BME280;3141;49.234;9.326;2023-04-26T03:49:42;99771.88;;;6.58;76.81
6216;BME280;3141;49.234;9.326;2023-04-26T03:50:25;99767.72;;;6.55;76.60
6216;BME280;3141;49.234;9.326;2023-04-26T03:51:07;99774.03;;;6.53;76.50
6216;BME280;3141;49.234;9.326;2023-04-26T03:51:49;99773.78;;;6.56;76.42
6216;BME280;3141;49.234;9.326;2023-04-26T03:52:32;99766.81;;;6.45;76.29
6216;BME280;3141;49.234;9.326;2023-04-26T03:53:14;99771.50;;;6.42;76.77
6216;BME280;3141;49.234;9.326;2023-04-26T03:53:57;99766.47;;;6.39;77.09
6216;BME280;3141;49.234;9.326;2023-04-26T03:54:39;99770.66;;;6.41;77.03
6216;BME280;3141;49.234;9.326;2023-04-26T03:55:22;99773.47;;;6.49;76.58